sensor_id;sensor_type;location;lat;lon;timestamp;P1;durP1;ratioP1;P2;durP2;ratioP2
7203;SDS011;3643;52.460;13.322;2023-09-07T00:02:19;6.77;;;5.10;;
7203;SDS011;3643;52.460;13.322;2023-09-07T00:05:04;6.97;;;5.40;;
7203;SDS011;3643;52.460;13.322;2023-09-07T00:07:34;7.73;;;6.10;;
7203;SDS011;3643;52.460;13.322;2023-09-07T00:10:03;6.10;;;5.43;;
7203;SDS011;3643;52.460;13.322;2023-09-07T00:12:34;8.10;;;5.80;;
7203;SDS011;3643;52.460;13.322;2023-09-07T00:15:06;9.40;;;5.50;;
7203;SDS011;3643;52.460;13.322;2023-09-07T00:17:37;10.33;;;7.20;;
7203;SDS011;3643;52.460;13.322;2023-09-07T00:20:05;7.50;;;6.53;;
7203;SDS011;3643;52.460;13.322;2023-09-07T00:22:37;10.50;;;7.93;;
7203;SDS011;3643;52.460;13.322;2023-09-07T00:25:06;9.40;;;6.67;;
7203;SDS011;3643;52.460;13.322;2023-09-07T00:27:37;8.93;;;7.10;;
7203;SDS011;3643;52.460;13.322;2023-09-07T00:30:06;9.37;;;7.43;;
7203;SDS011;3643;52.460;13.322;2023-09-07T00:32:36;11.00;;;7.27;;
7203;SDS011;3643;52.460;13.322;2023-09-07T00:35:05;8.20;;;6.60;;
7203;SDS011;3643;52.460;13.322;2023-09-07T00:37:34;8.63;;;6.73;;
7203;SDS011;3643;52.460;13.322;2023-09-07T00:40:03;8.90;;;6.73;;
7203;SDS011;3643;52.460;13.322;2023-09-07T00:42:35;7.70;;;6.90;;
7203;SDS011;3643;52.460;13.322;2023-09-07T00:45:06;8.40;;;6.70;;
7203;SDS011;3643;52.460;13.322;2023-09-07T00:47:35;10.03;;;7.30;;
7203;SDS011;3643;52.460;13.322;2023-09-07T00:50:04;8.37;;;6.30;;
7203;SDS011;3643;52.460;13.322;2023-09-07T00:52:33;10.00;;;6.73;;
7203;SDS011;3643;52.460;13.322;2023-09-07T00:55:07;7.60;;;6.43;;
7203;SDS011;3643;52.460;13.322;2023-09-07T00:57:38;8.17;;;6.50;;
7203;SDS011;3643;52.460;13.322;2023-09-07T01:00:09;7.40;;;5.93;;
7203;SDS011;3643;52.460;13.322;2023-09-07T01:02:38;7.97;;;5.97;;
7203;SDS011;3643;52.460;13.322;2023-09-07T01:05:08;6.70;;;6.00;;
7203;SDS011;3643;52.460;13.322;2023-09-07T01:07:38;9.17;;;6.63;;
7203;SDS011;3643;52.460;13.322;2023-09-07T01:10:10;9.87;;;6.30;;
7203;SDS011;3643;52.460;13.322;2023-09-07T01:12:41;6.87;;;6.17;;
7203;SDS011;3643;52.460;13.322;2023-09-07T01:15:09;7.53;;;6.00;;
7203;SDS011;3643;52.460;13.322;2023-09-07T01:17:38;6.50;;;5.80;;
7203;SDS011;3643;52.460;13.322;2023-09-07T01:20:07;6.27;;;5.13;;
7203;SDS011;3643;52.460;13.322;2023-09-07T01:22:44;6.57;;;5.87;;
7203;SDS011;3643;52.460;13.322;2023-09-07T01:25:14;7.13;;;5.93;;
7203;SDS011;3643;52.460;13.322;2023-09-07T01:27:43;8.60;;;6.30;;
7203;SDS011;3643;52.460;13.322;2023-09-07T01:30:12;6.80;;;6.10;;
7203;SDS011;3643;52.460;13.322;2023-09-07T01:32:41;6.70;;;6.00;;
7203;SDS011;3643;52.460;13.322;2023-09-07T01:35:10;7.77;;;6.17;;
7203;SDS011;3643;52.460;13.322;2023-09-07T01:37:44;6.70;;;6.00;;
7203;SDS011;3643;52.460;13.322;2023-09-07T01:40:13;9.97;;;5.97;;
7203;SDS011;3643;52.460;13.322;2023-09-07T01:42:42;8.97;;;6.40;;
7203;SDS011;3643;52.460;13.322;2023-09-07T01:45:10;7.43;;;6.00;;
7203;SDS011;3643;52.460;13.322;2023-09-07T01:47:39;7.23;;;6.47;;
7203;SDS011;3643;52.460;13.322;2023-09-07T01:50:07;7.10;;;6.20;;
7203;SDS011;3643;52.460;13.322;2023-09-07T01:52:36;8.73;;;6.40;;
7203;SDS011;3643;52.460;13.322;2023-09-07T01:55:06;7.07;;;6.00;;
7203;SDS011;3643;52.460;13.322;2023-09-07T01:57:35;8.67;;;6.00;;
7203;SDS011;3643;52.460;13.322;2023-09-07T02:00:04;7.70;;;6.23;;
7203;SDS011;3643;52.460;13.322;2023-09-07T02:02:34;7.27;;;6.43;;
7203;SDS011;3643;52.460;13.322;2023-09-07T02:05:02;8.17;;;6.13;;
7203;SDS011;3643;52.460;13.322;2023-09-07T02:07:30;8.87;;;5.77;;
7203;SDS011;3643;52.460;13.322;2023-09-07T02:09:59;9.10;;;6.50;;
7203;SDS011;3643;52.460;13.322;2023-09-07T02:12:31;7.00;;;5.70;;
7203;SDS011;3643;52.460;13.322;2023-09-07T02:15:01;7.93;;;6.10;;
7203;SDS011;3643;52.460;13.322;2023-09-07T04:54:36;10.17;;;7.80;;
7203;SDS011;3643;52.460;13.322;2023-09-07T04:57:04;10.30;;;7.30;;
7203;SDS011;3643;52.460;13.322;2023-09-07T04:59:32;8.57;;;7.13;;
7203;SDS011;3643;52.460;13.322;2023-09-07T05:02:01;8.30;;;7.00;;
7203;SDS011;3643;52.460;13.322;2023-09-07T05:04:29;9.33;;;7.30;;
7203;SDS011;3643;52.460;13.322;2023-09-07T05:06:58;9.40;;;7.20;;
7203;SDS011;3643;52.460;13.322;2023-09-07T05:09:26;8.30;;;6.50;;
7203;SDS011;3643;52.460;13.322;2023-09-07T05:11:57;8.93;;;7.00;;
7203;SDS011;3643;52.460;13.322;2023-09-07T05:14:25;8.13;;;7.27;;
7203;SDS011;3643;52.460;13.322;2023-09-07T05:16:53;8.87;;;7.07;;
7203;SDS011;3643;52.460;13.322;2023-09-07T05:19:22;9.27;;;7.10;;
7203;SDS011;3643;52.460;13.322;2023-09-07T05:21:51;8.20;;;6.93;;
7203;SDS011;3643;52.460;13.322;2023-09-07T05:24:19;8.27;;;6.77;;
7203;SDS011;3643;52.460;13.322;2023-09-07T05:26:47;8.00;;;6.60;;
7203;SDS011;3643;52.460;13.322;2023-09-07T05:29:18;10.73;;;6.90;;
7203;SDS011;3643;52.460;13.322;2023-09-07T05:31:48;9.67;;;7.33;;
7203;SDS011;3643;52.460;13.322;2023-09-07T05:34:16;9.73;;;6.70;;
7203;SDS011;3643;52.460;13.322;2023-09-07T05:36:44;11.57;;;7.17;;
7203;SDS011;3643;52.460;13.322;2023-09-07T05:39:13;10.43;;;8.03;;
7203;SDS011;3643;52.460;13.322;2023-09-07T05:41:41;12.83;;;7.50;;
7203;SDS011;3643;52.460;13.322;2023-09-07T05:44:09;8.73;;;6.57;;
7203;SDS011;3643;52.460;13.322;2023-09-07T05:46:39;8.33;;;7.23;;
7203;SDS011;3643;52.460;13.322;2023-09-07T05:49:07;12.67;;;9.50;;
7203;SDS011;3643;52.460;13.322;2023-09-07T05:51:35;9.60;;;7.07;;
7203;SDS011;3643;52.460;13.322;2023-09-07T05:54:04;11.57;;;8.70;;
7203;SDS011;3643;52.460;13.322;2023-09-07T05:56:32;10.17;;;6.53;;
7203;SDS011;3643;52.460;13.322;2023-09-07T05:59:01;13.20;;;8.83;;
7203;SDS011;3643;52.460;13.322;2023-09-07T06:01:29;8.97;;;5.77;;
7203;SDS011;3643;52.460;13.322;2023-09-07T06:03:59;10.40;;;5.53;;
7203;SDS011;3643;52.460;13.322;2023-09-07T06:06:28;9.50;;;5.93;;
7203;SDS011;3643;52.460;13.322;2023-09-07T06:08:57;11.57;;;6.13;;
7203;SDS011;3643;52.460;13.322;2023-09-07T06:11:26;8.07;;;5.20;;
7203;SDS011;3643;52.460;13.322;2023-09-07T06:13:55;9.25;;;5.95;;
7203;SDS011;3643;52.460;13.322;2023-09-07T06:16:23;18.67;;;6.85;;
7203;SDS011;3643;52.460;13.322;2023-09-07T06:18:52;7.10;;;5.75;;
7203;SDS011;3643;52.460;13.322;2023-09-07T06:21:21;7.85;;;5.30;;
7203;SDS011;3643;52.460;13.322;2023-09-07T06:23:50;6.40;;;5.25;;
7203;SDS011;3643;52.460;13.322;2023-09-07T06:26:18;8.75;;;5.95;;
7203;SDS011;3643;52.460;13.322;2023-09-07T06:28:46;9.23;;;5.78;;
7203;SDS011;3643;52.460;13.322;2023-09-07T06:31:14;6.25;;;5.53;;
7203;SDS011;3643;52.460;13.322;2023-09-07T06:33:45;9.30;;;5.70;;
7203;SDS011;3643;52.460;13.322;2023-09-07T06:36:13;9.10;;;6.70;;
7203;SDS011;3643;52.460;13.322;2023-09-07T06:38:43;9.77;;;7.45;;
7203;SDS011;3643;52.460;13.322;2023-09-07T06:41:11;7.32;;;5.80;;
7203;SDS011;3643;52.460;13.322;2023-09-07T06:43:40;10.20;;;7.15;;
7203;SDS011;3643;52.460;13.322;2023-09-07T06:46:08;8.70;;;6.68;;
7203;SDS011;3643;52.460;13.322;2023-09-07T06:48:37;9.02;;;5.72;;
7203;SDS011;3643;52.460;13.322;2023-09-07T06:51:06;11.13;;;8.02;;
7203;SDS011;3643;52.460;13.322;2023-09-07T06:53:36;6.95;;;5.82;;
7203;SDS011;3643;52.460;13.322;2023-09-07T06:56:24;9.50;;;5.53;;
7203;SDS011;3643;52.460;13.322;2023-09-07T06:58:57;6.95;;;5.53;;
7203;SDS011;3643;52.460;13.322;2023-09-07T07:01:25;8.63;;;5.65;;
7203;SDS011;3643;52.460;13.322;2023-09-07T07:03:54;7.93;;;5.15;;
7203;SDS011;3643;52.460;13.322;2023-09-07T07:06:23;8.85;;;5.97;;
7203;SDS011;3643;52.460;13.322;2023-09-07T07:08:52;8.10;;;5.55;;
7203;SDS011;3643;52.460;13.322;2023-09-07T07:11:20;8.80;;;5.30;;
7203;SDS011;3643;52.460;13.322;2023-09-07T07:13:49;5.88;;;5.28;;
7203;SDS011;3643;52.460;13.322;2023-09-07T07:16:18;6.13;;;5.30;;
7203;SDS011;3643;52.460;13.322;2023-09-07T07:18:46;8.35;;;5.80;;
7203;SDS011;3643;52.460;13.322;2023-09-07T07:21:14;10.77;;;5.18;;
7203;SDS011;3643;52.460;13.322;2023-09-07T07:23:43;11.30;;;6.22;;
7203;SDS011;3643;52.460;13.322;2023-09-07T07:26:11;9.13;;;5.28;;
7203;SDS011;3643;52.460;13.322;2023-09-07T07:28:39;11.32;;;6.47;;
7203;SDS011;3643;52.460;13.322;2023-09-07T07:31:09;6.55;;;5.38;;
7203;SDS011;3643;52.460;13.322;2023-09-07T07:33:37;6.95;;;5.43;;
7203;SDS011;3643;52.460;13.322;2023-09-07T07:36:06;7.20;;;5.32;;
7203;SDS011;3643;52.460;13.322;2023-09-07T07:38:35;9.20;;;5.57;;
7203;SDS011;3643;52.460;13.322;2023-09-07T07:41:03;9.73;;;5.10;;
7203;SDS011;3643;52.460;13.322;2023-09-07T07:43:32;8.70;;;5.68;;
7203;SDS011;3643;52.460;13.322;2023-09-07T07:46:01;10.55;;;6.10;;
7203;SDS011;3643;52.460;13.322;2023-09-07T07:48:31;6.82;;;5.20;;
7203;SDS011;3643;52.460;13.322;2023-09-07T07:51:02;7.78;;;5.55;;
7203;SDS011;3643;52.460;13.322;2023-09-07T07:53:37;18.52;;;15.80;;
7203;SDS011;3643;52.460;13.322;2023-09-07T07:56:05;9.32;;;5.70;;
7203;SDS011;3643;52.460;13.322;2023-09-07T07:58:33;8.05;;;5.20;;
7203;SDS011;3643;52.460;13.322;2023-09-07T08:01:02;6.63;;;5.22;;
7203;SDS011;3643;52.460;13.322;2023-09-07T08:03:32;7.38;;;5.20;;
7203;SDS011;3643;52.460;13.322;2023-09-07T08:06:01;6.60;;;5.38;;
7203;SDS011;3643;52.460;13.322;2023-09-07T08:08:29;7.55;;;5.57;;
7203;SDS011;3643;52.460;13.322;2023-09-07T08:10:58;8.32;;;5.57;;
7203;SDS011;3643;52.460;13.322;2023-09-07T08:13:32;6.20;;;5.30;;
7203;SDS011;3643;52.460;13.322;2023-09-07T08:16:01;9.70;;;4.87;;
7203;SDS011;3643;52.460;13.322;2023-09-07T08:18:33;9.37;;;5.53;;
7203;SDS011;3643;52.460;13.322;2023-09-07T08:21:03;6.93;;;4.90;;
7203;SDS011;3643;52.460;13.322;2023-09-07T08:23:31;9.17;;;5.40;;
7203;SDS011;3643;52.460;13.322;2023-09-07T08:25:59;11.43;;;5.53;;
7203;SDS011;3643;52.460;13.322;2023-09-07T08:28:28;5.97;;;4.90;;
7203;SDS011;3643;52.460;13.322;2023-09-07T08:30:56;9.07;;;4.60;;
7203;SDS011;3643;52.460;13.322;2023-09-07T08:33:27;5.50;;;4.50;;
7203;SDS011;3643;52.460;13.322;2023-09-07T08:35:58;8.17;;;5.10;;
7203;SDS011;3643;52.460;13.322;2023-09-07T08:38:28;7.50;;;4.73;;
7203;SDS011;3643;52.460;13.322;2023-09-07T08:41:00;8.47;;;4.70;;
7203;SDS011;3643;52.460;13.322;2023-09-07T08:43:33;6.87;;;4.90;;
7203;SDS011;3643;52.460;13.322;2023-09-07T08:46:04;6.37;;;4.50;;
7203;SDS011;3643;52.460;13.322;2023-09-07T08:48:42;6.33;;;4.30;;
7203;SDS011;3643;52.460;13.322;2023-09-07T08:51:14;6.77;;;4.50;;
7203;SDS011;3643;52.460;13.322;2023-09-07T08:53:43;10.53;;;4.83;;
7203;SDS011;3643;52.460;13.322;2023-09-07T08:56:13;4.80;;;4.10;;
7203;SDS011;3643;52.460;13.322;2023-09-07T08:58:42;6.50;;;4.37;;
7203;SDS011;3643;52.460;13.322;2023-09-07T09:01:11;8.40;;;4.53;;
7203;SDS011;3643;52.460;13.322;2023-09-07T09:03:40;7.03;;;4.37;;
7203;SDS011;3643;52.460;13.322;2023-09-07T09:06:10;5.67;;;4.20;;
7203;SDS011;3643;52.460;13.322;2023-09-07T09:08:44;5.13;;;3.97;;
7203;SDS011;3643;52.460;13.322;2023-09-07T09:11:16;7.47;;;4.73;;
7203;SDS011;3643;52.460;13.322;2023-09-07T09:13:45;5.40;;;4.43;;
7203;SDS011;3643;52.460;13.322;2023-09-07T09:16:14;9.63;;;4.27;;
7203;SDS011;3643;52.460;13.322;2023-09-07T09:18:47;5.47;;;4.40;;
7203;SDS011;3643;52.460;13.322;2023-09-07T09:21:18;10.17;;;4.80;;
7203;SDS011;3643;52.460;13.322;2023-09-07T09:23:49;6.60;;;4.50;;
7203;SDS011;3643;52.460;13.322;2023-09-07T09:26:18;6.30;;;4.93;;
7203;SDS011;3643;52.460;13.322;2023-09-07T09:28:47;6.87;;;4.63;;
7203;SDS011;3643;52.460;13.322;2023-09-07T09:31:17;5.70;;;4.80;;
7203;SDS011;3643;52.460;13.322;2023-09-07T09:33:47;6.20;;;4.60;;
7203;SDS011;3643;52.460;13.322;2023-09-07T09:36:18;6.30;;;4.63;;
7203;SDS011;3643;52.460;13.322;2023-09-07T09:38:47;8.17;;;5.03;;
7203;SDS011;3643;52.460;13.322;2023-09-07T09:41:20;6.87;;;4.70;;
7203;SDS011;3643;52.460;13.322;2023-09-07T09:43:48;5.60;;;4.80;;
7203;SDS011;3643;52.460;13.322;2023-09-07T09:46:18;5.43;;;4.93;;
7203;SDS011;3643;52.460;13.322;2023-09-07T09:48:47;6.60;;;4.17;;
7203;SDS011;3643;52.460;13.322;2023-09-07T09:51:16;5.57;;;5.07;;
7203;SDS011;3643;52.460;13.322;2023-09-07T09:53:46;9.50;;;4.93;;
7203;SDS011;3643;52.460;13.322;2023-09-07T09:56:17;6.90;;;4.70;;
7203;SDS011;3643;52.460;13.322;2023-09-07T09:58:47;6.17;;;4.70;;
7203;SDS011;3643;52.460;13.322;2023-09-07T10:01:15;5.10;;;4.60;;
7203;SDS011;3643;52.460;13.322;2023-09-07T10:03:45;6.67;;;4.87;;
7203;SDS011;3643;52.460;13.322;2023-09-07T10:06:18;7.63;;;4.70;;
7203;SDS011;3643;52.460;13.322;2023-09-07T10:08:54;7.23;;;4.90;;
7203;SDS011;3643;52.460;13.322;2023-09-07T10:11:28;5.80;;;4.60;;
7203;SDS011;3643;52.460;13.322;2023-09-07T10:13:58;5.97;;;4.60;;
7203;SDS011;3643;52.460;13.322;2023-09-07T10:16:40;5.87;;;4.57;;
7203;SDS011;3643;52.460;13.322;2023-09-07T10:19:14;7.13;;;4.33;;
7203;SDS011;3643;52.460;13.322;2023-09-07T10:21:43;8.20;;;4.70;;
7203;SDS011;3643;52.460;13.322;2023-09-07T10:24:11;5.30;;;4.63;;
7203;SDS011;3643;52.460;13.322;2023-09-07T10:26:59;9.33;;;5.40;;
7203;SDS011;3643;52.460;13.322;2023-09-07T10:29:28;9.73;;;5.50;;
7203;SDS011;3643;52.460;13.322;2023-09-07T10:32:07;5.30;;;4.47;;
7203;SDS011;3643;52.460;13.322;2023-09-07T10:34:37;6.03;;;4.60;;
7203;SDS011;3643;52.460;13.322;2023-09-07T10:37:10;6.47;;;5.80;;
7203;SDS011;3643;52.460;13.322;2023-09-07T10:39:40;9.17;;;4.97;;
7203;SDS011;3643;52.460;13.322;2023-09-07T10:42:21;7.83;;;5.50;;
7203;SDS011;3643;52.460;13.322;2023-09-07T10:44:51;4.77;;;4.17;;
7203;SDS011;3643;52.460;13.322;2023-09-07T10:47:20;6.40;;;4.20;;
7203;SDS011;3643;52.460;13.322;2023-09-07T10:49:48;7.67;;;4.13;;
7203;SDS011;3643;52.460;13.322;2023-09-07T10:52:17;9.13;;;4.80;;
7203;SDS011;3643;52.460;13.322;2023-09-07T10:54:45;5.43;;;3.97;;
7203;SDS011;3643;52.460;13.322;2023-09-07T10:57:25;7.03;;;5.13;;
7203;SDS011;3643;52.460;13.322;2023-09-07T10:59:54;5.73;;;3.77;;
7203;SDS011;3643;52.460;13.322;2023-09-07T11:02:22;6.20;;;5.43;;
7203;SDS011;3643;52.460;13.322;2023-09-07T11:04:50;6.13;;;4.60;;
7203;SDS011;3643;52.460;13.322;2023-09-07T11:07:19;6.53;;;3.77;;
7203;SDS011;3643;52.460;13.322;2023-09-07T11:09:47;4.17;;;3.77;;
7203;SDS011;3643;52.460;13.322;2023-09-07T11:12:19;4.50;;;3.93;;
7203;SDS011;3643;52.460;13.322;2023-09-07T11:14:50;4.97;;;4.00;;
7203;SDS011;3643;52.460;13.322;2023-09-07T11:17:19;6.17;;;4.13;;
7203;SDS011;3643;52.460;13.322;2023-09-07T11:19:53;7.73;;;3.50;;
7203;SDS011;3643;52.460;13.322;2023-09-07T11:22:22;5.07;;;3.40;;
7203;SDS011;3643;52.460;13.322;2023-09-07T11:24:50;4.87;;;3.70;;
7203;SDS011;3643;52.460;13.322;2023-09-07T11:27:18;9.03;;;3.80;;
7203;SDS011;3643;52.460;13.322;2023-09-07T11:29:53;4.00;;;3.60;;
7203;SDS011;3643;52.460;13.322;2023-09-07T11:32:23;5.03;;;3.90;;
7203;SDS011;3643;52.460;13.322;2023-09-07T11:34:51;7.50;;;4.03;;
7203;SDS011;3643;52.460;13.322;2023-09-07T11:37:25;4.28;;;3.78;;
7203;SDS011;3643;52.460;13.322;2023-09-07T11:39:54;6.10;;;5.40;;
7203;SDS011;3643;52.460;13.322;2023-09-07T11:42:22;6.50;;;4.13;;
7203;SDS011;3643;52.460;13.322;2023-09-07T11:44:52;6.63;;;5.15;;
7203;SDS011;3643;52.460;13.322;2023-09-07T11:47:21;5.93;;;4.17;;
7203;SDS011;3643;52.460;13.322;2023-09-07T11:49:49;5.87;;;3.80;;
7203;SDS011;3643;52.460;13.322;2023-09-07T11:52:20;5.27;;;3.50;;
7203;SDS011;3643;52.460;13.322;2023-09-07T11:54:48;4.37;;;3.40;;
7203;SDS011;3643;52.460;13.322;2023-09-07T11:57:16;5.73;;;3.70;;
7203;SDS011;3643;52.460;13.322;2023-09-07T11:59:45;5.30;;;3.67;;
7203;SDS011;3643;52.460;13.322;2023-09-07T12:02:26;5.15;;;3.50;;
7203;SDS011;3643;52.460;13.322;2023-09-07T12:04:54;8.47;;;3.87;;
7203;SDS011;3643;52.460;13.322;2023-09-07T12:07:22;6.30;;;4.30;;
7203;SDS011;3643;52.460;13.322;2023-09-07T12:09:52;5.53;;;4.20;;
7203;SDS011;3643;52.460;13.322;2023-09-07T12:12:22;4.67;;;4.10;;
7203;SDS011;3643;52.460;13.322;2023-09-07T12:14:51;5.23;;;4.50;;
7203;SDS011;3643;52.460;13.322;2023-09-07T12:17:19;7.77;;;4.20;;
7203;SDS011;3643;52.460;13.322;2023-09-07T12:19:50;7.32;;;4.28;;
7203;SDS011;3643;52.460;13.322;2023-09-07T12:22:18;5.90;;;4.80;;
7203;SDS011;3643;52.460;13.322;2023-09-07T12:24:47;5.75;;;4.22;;
7203;SDS011;3643;52.460;13.322;2023-09-07T12:27:31;6.50;;;4.13;;
7203;SDS011;3643;52.460;13.322;2023-09-07T12:30:18;5.47;;;4.60;;
7203;SDS011;3643;52.460;13.322;2023-09-07T12:32:51;6.47;;;4.10;;
7203;SDS011;3643;52.460;13.322;2023-09-07T12:35:21;6.10;;;4.28;;
7203;SDS011;3643;52.460;13.322;2023-09-07T12:37:50;6.00;;;4.30;;
7203;SDS011;3643;52.460;13.322;2023-09-07T12:40:18;5.95;;;4.13;;
7203;SDS011;3643;52.460;13.322;2023-09-07T12:42:47;7.17;;;4.63;;
7203;SDS011;3643;52.460;13.322;2023-09-07T12:45:15;4.70;;;4.10;;
7203;SDS011;3643;52.460;13.322;2023-09-07T12:47:43;4.90;;;4.00;;
7203;SDS011;3643;52.460;13.322;2023-09-07T12:50:12;7.53;;;4.80;;
7203;SDS011;3643;52.460;13.322;2023-09-07T12:52:41;6.43;;;4.45;;
7203;SDS011;3643;52.460;13.322;2023-09-07T12:55:10;5.77;;;4.40;;
7203;SDS011;3643;52.460;13.322;2023-09-07T12:57:38;9.60;;;5.70;;
7203;SDS011;3643;52.460;13.322;2023-09-07T13:00:07;7.73;;;4.57;;
7203;SDS011;3643;52.460;13.322;2023-09-07T13:02:37;5.35;;;4.85;;
7203;SDS011;3643;52.460;13.322;2023-09-07T13:05:06;6.05;;;4.65;;
7203;SDS011;3643;52.460;13.322;2023-09-07T13:07:35;5.90;;;4.63;;
7203;SDS011;3643;52.460;13.322;2023-09-07T13:10:05;4.45;;;4.05;;
7203;SDS011;3643;52.460;13.322;2023-09-07T13:12:34;8.73;;;4.70;;
7203;SDS011;3643;52.460;13.322;2023-09-07T13:15:02;4.67;;;3.93;;
7203;SDS011;3643;52.460;13.322;2023-09-07T13:17:31;6.85;;;4.50;;
7203;SDS011;3643;52.460;13.322;2023-09-07T13:19:59;6.47;;;4.30;;
7203;SDS011;3643;52.460;13.322;2023-09-07T13:22:27;4.60;;;3.90;;
7203;SDS011;3643;52.460;13.322;2023-09-07T13:24:56;6.30;;;4.05;;
7203;SDS011;3643;52.460;13.322;2023-09-07T13:27:25;4.53;;;3.90;;
7203;SDS011;3643;52.460;13.322;2023-09-07T13:29:54;5.13;;;4.03;;
7203;SDS011;3643;52.460;13.322;2023-09-07T13:32:23;7.50;;;4.10;;
7203;SDS011;3643;52.460;13.322;2023-09-07T13:34:52;6.65;;;4.43;;
7203;SDS011;3643;52.460;13.322;2023-09-07T13:37:20;6.80;;;4.03;;
7203;SDS011;3643;52.460;13.322;2023-09-07T13:39:48;5.03;;;3.75;;
7203;SDS011;3643;52.460;13.322;2023-09-07T13:42:17;5.05;;;3.65;;
7203;SDS011;3643;52.460;13.322;2023-09-07T13:44:45;6.22;;;4.00;;
7203;SDS011;3643;52.460;13.322;2023-09-07T13:47:16;6.38;;;4.43;;
7203;SDS011;3643;52.460;13.322;2023-09-07T13:49:44;4.53;;;3.80;;
7203;SDS011;3643;52.460;13.322;2023-09-07T13:52:13;4.40;;;3.67;;
7203;SDS011;3643;52.460;13.322;2023-09-07T13:54:41;5.75;;;4.15;;
7203;SDS011;3643;52.460;13.322;2023-09-07T13:57:09;5.80;;;4.40;;
7203;SDS011;3643;52.460;13.322;2023-09-07T13:59:38;4.88;;;3.67;;
7203;SDS011;3643;52.460;13.322;2023-09-07T14:02:07;4.85;;;4.35;;
7203;SDS011;3643;52.460;13.322;2023-09-07T14:04:36;8.07;;;4.30;;
7203;SDS011;3643;52.460;13.322;2023-09-07T14:07:04;4.55;;;3.90;;
7203;SDS011;3643;52.460;13.322;2023-09-07T14:09:32;6.82;;;3.80;;
7203;SDS011;3643;52.460;13.322;2023-09-07T14:12:01;5.55;;;4.00;;
7203;SDS011;3643;52.460;13.322;2023-09-07T14:14:29;8.57;;;4.35;;
7203;SDS011;3643;52.460;13.322;2023-09-07T14:16:58;6.03;;;4.65;;
7203;SDS011;3643;52.460;13.322;2023-09-07T14:19:28;6.05;;;3.95;;
7203;SDS011;3643;52.460;13.322;2023-09-07T14:21:57;4.63;;;3.53;;
7203;SDS011;3643;52.460;13.322;2023-09-07T14:24:26;5.13;;;4.47;;
7203;SDS011;3643;52.460;13.322;2023-09-07T14:26:54;5.07;;;4.40;;
7203;SDS011;3643;52.460;13.322;2023-09-07T14:29:23;5.85;;;4.68;;
7203;SDS011;3643;52.460;13.322;2023-09-07T14:31:53;4.68;;;4.15;;
7203;SDS011;3643;52.460;13.322;2023-09-07T14:34:21;5.18;;;4.05;;
7203;SDS011;3643;52.460;13.322;2023-09-07T14:36:51;6.22;;;4.63;;
7203;SDS011;3643;52.460;13.322;2023-09-07T14:39:19;4.90;;;4.40;;
7203;SDS011;3643;52.460;13.322;2023-09-07T14:41:50;9.20;;;6.03;;
7203;SDS011;3643;52.460;13.322;2023-09-07T14:44:20;8.07;;;5.38;;
7203;SDS011;3643;52.460;13.322;2023-09-07T14:46:49;8.02;;;5.07;;
7203;SDS011;3643;52.460;13.322;2023-09-07T14:49:17;4.72;;;4.10;;
7203;SDS011;3643;52.460;13.322;2023-09-07T14:51:47;5.38;;;4.32;;
7203;SDS011;3643;52.460;13.322;2023-09-07T14:54:17;5.90;;;4.40;;
7203;SDS011;3643;52.460;13.322;2023-09-07T14:56:45;5.28;;;4.22;;
7203;SDS011;3643;52.460;13.322;2023-09-07T14:59:13;5.68;;;4.78;;
7203;SDS011;3643;52.460;13.322;2023-09-07T15:01:42;7.55;;;5.00;;
7203;SDS011;3643;52.460;13.322;2023-09-07T15:04:20;6.80;;;4.57;;
7203;SDS011;3643;52.460;13.322;2023-09-07T15:06:49;7.45;;;4.80;;
7203;SDS011;3643;52.460;13.322;2023-09-07T15:09:18;5.50;;;4.25;;
7203;SDS011;3643;52.460;13.322;2023-09-07T15:11:47;6.55;;;4.32;;
7203;SDS011;3643;52.460;13.322;2023-09-07T15:14:16;4.78;;;3.97;;
7203;SDS011;3643;52.460;13.322;2023-09-07T15:16:44;4.95;;;4.45;;
7203;SDS011;3643;52.460;13.322;2023-09-07T15:19:12;10.18;;;4.55;;
7203;SDS011;3643;52.460;13.322;2023-09-07T15:21:41;6.82;;;4.00;;
7203;SDS011;3643;52.460;13.322;2023-09-07T15:24:09;4.50;;;3.90;;
7203;SDS011;3643;52.460;13.322;2023-09-07T15:26:42;6.95;;;5.03;;
7203;SDS011;3643;52.460;13.322;2023-09-07T15:29:12;8.50;;;4.20;;
7203;SDS011;3643;52.460;13.322;2023-09-07T15:31:40;5.65;;;5.10;;
7203;SDS011;3643;52.460;13.322;2023-09-07T15:34:08;9.30;;;4.97;;
7203;SDS011;3643;52.460;13.322;2023-09-07T15:36:37;7.95;;;4.50;;
7203;SDS011;3643;52.460;13.322;2023-09-07T15:39:05;6.47;;;4.43;;
7203;SDS011;3643;52.460;13.322;2023-09-07T15:41:33;7.50;;;4.18;;
7203;SDS011;3643;52.460;13.322;2023-09-07T15:44:04;11.02;;;7.38;;
7203;SDS011;3643;52.460;13.322;2023-09-07T15:46:32;8.88;;;5.45;;
7203;SDS011;3643;52.460;13.322;2023-09-07T15:49:00;8.57;;;4.80;;
7203;SDS011;3643;52.460;13.322;2023-09-07T15:51:29;5.40;;;4.60;;
7203;SDS011;3643;52.460;13.322;2023-09-07T15:53:57;7.35;;;4.57;;
7203;SDS011;3643;52.460;13.322;2023-09-07T15:56:25;6.88;;;5.00;;
7203;SDS011;3643;52.460;13.322;2023-09-07T15:58:54;5.57;;;5.00;;
7203;SDS011;3643;52.460;13.322;2023-09-07T16:01:26;6.73;;;4.70;;
7203;SDS011;3643;52.460;13.322;2023-09-07T16:03:54;5.97;;;4.78;;
7203;SDS011;3643;52.460;13.322;2023-09-07T16:06:23;9.60;;;5.27;;
7203;SDS011;3643;52.460;13.322;2023-09-07T16:08:53;7.17;;;4.80;;
7203;SDS011;3643;52.460;13.322;2023-09-07T16:11:21;7.18;;;4.88;;
7203;SDS011;3643;52.460;13.322;2023-09-07T16:13:50;8.10;;;5.00;;
7203;SDS011;3643;52.460;13.322;2023-09-07T16:16:19;9.13;;;4.83;;
7203;SDS011;3643;52.460;13.322;2023-09-07T16:18:50;7.72;;;6.25;;
7203;SDS011;3643;52.460;13.322;2023-09-07T16:21:18;9.90;;;5.17;;
7203;SDS011;3643;52.460;13.322;2023-09-07T16:23:48;7.07;;;4.67;;
7203;SDS011;3643;52.460;13.322;2023-09-07T16:26:18;7.27;;;5.00;;
7203;SDS011;3643;52.460;13.322;2023-09-07T16:28:47;6.77;;;5.13;;
7203;SDS011;3643;52.460;13.322;2023-09-07T16:31:15;6.57;;;4.90;;
7203;SDS011;3643;52.460;13.322;2023-09-07T16:33:44;5.70;;;5.03;;
7203;SDS011;3643;52.460;13.322;2023-09-07T16:36:13;6.33;;;4.50;;
7203;SDS011;3643;52.460;13.322;2023-09-07T16:38:41;6.37;;;4.47;;
7203;SDS011;3643;52.460;13.322;2023-09-07T16:41:10;8.90;;;5.00;;
7203;SDS011;3643;52.460;13.322;2023-09-07T16:43:39;6.87;;;4.87;;
7203;SDS011;3643;52.460;13.322;2023-09-07T16:46:07;6.20;;;4.57;;
7203;SDS011;3643;52.460;13.322;2023-09-07T16:48:35;6.87;;;4.40;;
7203;SDS011;3643;52.460;13.322;2023-09-07T16:51:05;6.93;;;4.80;;
7203;SDS011;3643;52.460;13.322;2023-09-07T16:53:35;7.90;;;4.77;;
7203;SDS011;3643;52.460;13.322;2023-09-07T16:56:04;5.73;;;4.43;;
7203;SDS011;3643;52.460;13.322;2023-09-07T16:58:33;7.00;;;5.00;;
7203;SDS011;3643;52.460;13.322;2023-09-07T17:01:22;6.57;;;4.60;;
7203;SDS011;3643;52.460;13.322;2023-09-07T17:03:51;6.10;;;4.57;;
7203;SDS011;3643;52.460;13.322;2023-09-07T17:06:19;6.37;;;4.70;;
7203;SDS011;3643;52.460;13.322;2023-09-07T17:08:49;6.53;;;4.77;;
7203;SDS011;3643;52.460;13.322;2023-09-07T17:11:17;7.30;;;4.70;;
7203;SDS011;3643;52.460;13.322;2023-09-07T17:13:46;7.50;;;5.30;;
7203;SDS011;3643;52.460;13.322;2023-09-07T17:16:27;9.70;;;5.27;;
7203;SDS011;3643;52.460;13.322;2023-09-07T17:18:56;6.60;;;5.17;;
7203;SDS011;3643;52.460;13.322;2023-09-07T17:21:25;7.57;;;4.67;;
7203;SDS011;3643;52.460;13.322;2023-09-07T17:23:54;7.17;;;4.90;;
7203;SDS011;3643;52.460;13.322;2023-09-07T17:26:23;5.57;;;4.70;;
7203;SDS011;3643;52.460;13.322;2023-09-07T17:28:51;6.30;;;4.93;;
7203;SDS011;3643;52.460;13.322;2023-09-07T17:31:19;7.50;;;4.90;;
7203;SDS011;3643;52.460;13.322;2023-09-07T17:33:48;7.37;;;4.90;;
7203;SDS011;3643;52.460;13.322;2023-09-07T17:36:17;6.40;;;4.63;;
7203;SDS011;3643;52.460;13.322;2023-09-07T17:38:46;7.97;;;4.97;;
7203;SDS011;3643;52.460;13.322;2023-09-07T17:41:23;7.60;;;5.00;;
7203;SDS011;3643;52.460;13.322;2023-09-07T17:43:52;6.57;;;5.10;;
7203;SDS011;3643;52.460;13.322;2023-09-07T17:46:22;6.67;;;4.83;;
7203;SDS011;3643;52.460;13.322;2023-09-07T17:48:51;9.67;;;4.87;;
7203;SDS011;3643;52.460;13.322;2023-09-07T17:51:20;6.53;;;5.50;;
7203;SDS011;3643;52.460;13.322;2023-09-07T17:53:49;6.90;;;5.00;;